createdAt,value
2023-01-02T00:02:11.875Z,99523.25
2023-01-02T00:04:38.821Z,99528.47
2023-01-02T00:07:06.756Z,99533.13
2023-01-02T00:09:33.680Z,99529.53
2023-01-02T00:12:00.928Z,99521.66
2023-01-02T00:14:27.930Z,99514.66
2023-01-02T00:16:55.030Z,99507.28
2023-01-02T00:19:21.978Z,99517.66
2023-01-02T00:21:49.188Z,99515.84
2023-01-02T00:24:16.115Z,99522.16
2023-01-02T00:26:43.456Z,99516.97
2023-01-02T00:29:10.466Z,99508.97
2023-01-02T00:31:37.644Z,99514.06
2023-01-02T00:34:04.602Z,99511.56
2023-01-02T00:36:31.861Z,99523.34
2023-01-02T00:38:58.772Z,99514.53
2023-01-02T00:41:26.063Z,99521.47
2023-01-02T00:43:53.020Z,99514.53
2023-01-02T00:46:20.271Z,99523.53
2023-01-02T00:48:47.319Z,99518.31
2023-01-02T00:51:14.551Z,99521.59
2023-01-02T00:53:41.532Z,99514.53
2023-01-02T00:56:08.816Z,99521.53
2023-01-02T00:58:35.971Z,99518.09
2023-01-02T01:01:04.334Z,99521.66
2023-01-02T01:03:31.580Z,99509.53
2023-01-02T01:05:58.879Z,99522.06
2023-01-02T01:08:25.850Z,99511.69
2023-01-02T01:10:53.058Z,99517.97
2023-01-02T01:13:19.916Z,99512.81
2023-01-02T01:15:47.269Z,99510.38
2023-01-02T01:18:14.226Z,99498.00
2023-01-02T01:20:41.438Z,99498.06
2023-01-02T01:23:08.403Z,99501.44
2023-01-02T01:25:37.476Z,99499.00
2023-01-02T01:28:04.414Z,99492.84
2023-01-02T01:30:31.634Z,99487.72
2023-01-02T01:32:58.572Z,99483.34
2023-01-02T01:35:25.768Z,99486.03
2023-01-02T01:37:52.651Z,99482.53
2023-01-02T01:40:19.777Z,99470.97
2023-01-02T01:42:50.157Z,99479.69
2023-01-02T01:45:18.820Z,99475.47
2023-01-02T01:47:52.727Z,99476.59
2023-01-02T01:50:25.146Z,99472.41
2023-01-02T01:52:57.148Z,99470.00
2023-01-02T01:55:29.089Z,99468.41
2023-01-02T01:57:59.520Z,99465.13
2023-01-02T02:00:27.353Z,99465.34
2023-01-02T02:02:59.569Z,99469.06
2023-01-02T02:05:30.673Z,99466.34
2023-01-02T02:08:21.327Z,99466.28
2023-01-02T02:10:49.334Z,99459.47
2023-01-02T02:13:17.106Z,99477.09
2023-01-02T02:16:02.527Z,99466.72
2023-01-02T02:18:53.828Z,99463.22
2023-01-02T02:21:40.365Z,99461.69
2023-01-02T02:24:36.541Z,99462.94
2023-01-02T02:27:17.037Z,99445.97
2023-01-02T02:30:03.018Z,99450.88
2023-01-02T02:32:41.567Z,99453.34
2023-01-02T02:35:26.546Z,99454.97
2023-01-02T02:38:19.511Z,99459.16
2023-01-02T02:41:02.305Z,99451.91
2023-01-02T02:43:57.376Z,99470.28
2023-01-02T02:46:42.548Z,99447.16
2023-01-02T02:49:29.552Z,99452.31
2023-01-02T02:52:12.373Z,99453.25
2023-01-02T02:54:49.927Z,99454.16
2023-01-02T02:57:18.243Z,99452.31
2023-01-02T02:59:46.396Z,99465.41
2023-01-02T03:02:17.814Z,99454.91
2023-01-02T03:04:50.029Z,99459.25
2023-01-02T03:07:22.762Z,99462.78
2023-01-02T03:10:32.301Z,99461.09
2023-01-02T03:13:41.619Z,99474.50
2023-01-02T03:16:33.819Z,99474.03
2023-01-02T03:19:11.743Z,99476.00
2023-01-02T03:22:06.301Z,99468.50
2023-01-02T03:24:34.890Z,99468.75
2023-01-02T03:27:06.666Z,99471.34
2023-01-02T03:29:44.612Z,99464.28
2023-01-02T03:32:23.433Z,99464.28
2023-01-02T03:34:52.916Z,99456.47
2023-01-02T03:37:28.584Z,99445.97
2023-01-02T03:40:01.303Z,99454.84
2023-01-02T03:42:34.542Z,99453.91
2023-01-02T03:45:26.434Z,99445.19
2023-01-02T03:48:23.966Z,99437.50
2023-01-02T03:50:54.000Z,99439.09
2023-01-02T03:53:22.251Z,99427.81
2023-01-02T03:56:11.200Z,99436.44
2023-01-02T03:58:51.991Z,99433.00
2023-01-02T04:01:36.644Z,99430.47
2023-01-02T04:04:17.524Z,99434.94
2023-01-02T04:06:49.755Z,99435.13
2023-01-02T04:09:24.398Z,99445.69
2023-01-02T04:11:58.807Z,99440.44
2023-01-02T04:14:41.908Z,99437.97
2023-01-02T04:17:10.387Z,99441.59
2023-01-02T04:19:52.704Z,99436.38
2023-01-02T04:22:24.857Z,99447.78
2023-01-02T04:25:08.144Z,99433.97
2023-01-02T04:27:44.855Z,99433.91
2023-01-02T04:30:12.195Z,99437.47
2023-01-02T04:32:43.024Z,99433.16
2023-01-02T04:35:14.923Z,99421.03
2023-01-02T04:37:43.860Z,99424.47
2023-01-02T04:40:28.399Z,99425.19
2023-01-02T04:42:55.731Z,99423.34
2023-01-02T04:45:23.513Z,99423.34
2023-01-02T04:47:51.153Z,99423.13
2023-01-02T04:50:18.510Z,99423.03
2023-01-02T04:52:45.370Z,99424.75
2023-01-02T04:55:12.604Z,99422.97
2023-01-02T04:57:39.549Z,99424.78
2023-01-02T05:00:08.459Z,99421.28
2023-01-02T05:02:39.964Z,99426.66
2023-01-02T05:05:09.368Z,99428.41
2023-01-02T05:07:37.156Z,99426.41
2023-01-02T05:10:05.538Z,99424.28
2023-01-02T05:12:39.459Z,99423.94
2023-01-02T05:15:08.809Z,99421.78
2023-01-02T05:17:36.628Z,99420.72
2023-01-02T05:20:05.688Z,99437.91
2023-01-02T05:22:51.013Z,99418.56
2023-01-02T05:25:18.246Z,99429.88
2023-01-02T05:27:45.854Z,99422.84
2023-01-02T05:30:13.194Z,99424.44
2023-01-02T05:32:40.095Z,99439.28
2023-01-02T05:35:07.670Z,99432.16
2023-01-02T05:37:34.600Z,99425.22
2023-01-02T05:40:01.805Z,99425.22
2023-01-02T05:42:28.724Z,99422.34
2023-01-02T05:44:55.916Z,99427.47
2023-01-02T05:47:22.965Z,99424.78
2023-01-02T05:49:50.179Z,99415.91
2023-01-02T05:52:17.131Z,99414.88
2023-01-02T05:54:44.304Z,99419.22
2023-01-02T05:57:11.228Z,99424.66
2023-01-02T05:59:38.429Z,99418.63
2023-01-02T06:02:05.406Z,99422.41
2023-01-02T06:04:32.650Z,99417.38
2023-01-02T06:06:59.597Z,99412.47
2023-01-02T06:09:26.823Z,99408.31
2023-01-02T06:11:53.736Z,99410.22
2023-01-02T06:14:22.366Z,99405.94
2023-01-02T06:16:49.328Z,99413.25
2023-01-02T06:19:16.576Z,99397.34
2023-01-02T06:21:43.517Z,99409.63
2023-01-02T06:24:10.766Z,99400.66
2023-01-02T06:26:37.706Z,99416.34
2023-01-02T06:29:05.008Z,99402.16
2023-01-02T06:31:33.698Z,99394.13
2023-01-02T06:34:02.760Z,99402.06
2023-01-02T06:36:31.582Z,99398.34
2023-01-02T06:38:59.099Z,99397.09
2023-01-02T06:41:26.076Z,99395.91
2023-01-02T06:43:53.222Z,99392.94
2023-01-02T06:46:22.861Z,99411.81
2023-01-02T06:48:50.810Z,99403.59
2023-01-02T06:51:20.853Z,99393.56
2023-01-02T06:53:49.528Z,99402.97
2023-01-02T06:56:18.108Z,99395.53
2023-01-02T06:58:45.269Z,99405.78
2023-01-02T07:01:15.078Z,99404.72
2023-01-02T07:03:42.690Z,99391.28
2023-01-02T07:06:15.793Z,99398.22
2023-01-02T07:08:43.485Z,99396.16
2023-01-02T07:11:14.061Z,99400.94
2023-01-02T07:13:42.836Z,99385.50
2023-01-02T07:16:12.797Z,99403.03
2023-01-02T07:18:40.343Z,99393.03
2023-01-02T07:21:08.324Z,99394.94
2023-01-02T07:23:36.019Z,99392.56
2023-01-02T07:26:05.121Z,99395.44
2023-01-02T07:28:32.409Z,99390.53
2023-01-02T07:31:02.046Z,99399.03
2023-01-02T07:33:30.357Z,99402.34
2023-01-02T07:36:01.901Z,99404.47
2023-01-02T07:38:29.379Z,99400.50
2023-01-02T07:40:56.293Z,99400.78
2023-01-02T07:43:23.821Z,99410.13
2023-01-02T07:45:51.133Z,99405.06
2023-01-02T07:48:19.134Z,99399.34
2023-01-02T07:50:46.798Z,99407.50
2023-01-02T07:53:14.086Z,99398.66
2023-01-02T07:55:41.031Z,99405.06
2023-01-02T07:58:08.310Z,99404.53
2023-01-02T08:00:35.339Z,99393.31
2023-01-02T08:03:02.527Z,99408.97
2023-01-02T08:05:29.481Z,99393.66
2023-01-02T08:07:56.719Z,99413.00
2023-01-02T08:10:23.705Z,99396.97
2023-01-02T08:12:50.907Z,99395.47
2023-01-02T08:15:17.932Z,99401.06
2023-01-02T08:17:46.508Z,99401.28
2023-01-02T08:20:13.404Z,99410.09
2023-01-02T08:22:41.185Z,99393.28
2023-01-02T08:25:09.902Z,99395.75
2023-01-02T08:27:37.094Z,99386.97
2023-01-02T08:30:04.490Z,99402.38
2023-01-02T08:32:36.043Z,99400.03
2023-01-02T08:35:03.430Z,99395.28
2023-01-02T08:37:30.638Z,99417.31
2023-01-02T08:39:57.608Z,99403.25
2023-01-02T08:42:24.792Z,99415.88
2023-01-02T08:44:52.047Z,99410.00
2023-01-02T08:47:19.299Z,99402.13
2023-01-02T08:49:46.179Z,99411.44
2023-01-02T08:52:13.384Z,99401.56
2023-01-02T08:54:40.303Z,99412.41
2023-01-02T08:57:07.484Z,99407.06
2023-01-02T08:59:34.577Z,99394.03
2023-01-02T09:02:01.909Z,99405.75
2023-01-02T09:04:28.967Z,99402.50
2023-01-02T09:06:56.171Z,99394.06
2023-01-02T09:09:23.120Z,99416.50
2023-01-02T09:11:52.221Z,99397.94
2023-01-02T09:14:21.529Z,99408.25
2023-01-02T09:16:49.957Z,99429.16
2023-01-02T09:19:17.350Z,99385.38
2023-01-02T09:21:44.783Z,99380.34
2023-01-02T09:24:12.157Z,99394.25
2023-01-02T09:26:41.921Z,99402.16
2023-01-02T09:29:10.420Z,99393.84
2023-01-02T09:31:38.275Z,99397.75
2023-01-02T09:34:05.483Z,99392.97
2023-01-02T09:36:33.096Z,99391.06
2023-01-02T09:39:01.472Z,99381.97
2023-01-02T09:41:40.014Z,99391.63
2023-01-02T09:44:19.020Z,99379.41
2023-01-02T09:46:55.444Z,99388.16
2023-01-02T09:49:26.320Z,99385.47
2023-01-02T09:51:54.006Z,99374.91
2023-01-02T09:54:28.319Z,99370.50
2023-01-02T09:57:11.667Z,99377.34
2023-01-02T09:59:57.900Z,99362.50
2023-01-02T10:02:37.320Z,99365.31
2023-01-02T10:05:30.629Z,99361.06
2023-01-02T10:08:09.791Z,99349.72
2023-01-02T10:10:46.840Z,99345.38
2023-01-02T10:13:21.298Z,99322.41
2023-01-02T10:15:51.289Z,99334.34
2023-01-02T10:18:24.898Z,99346.53
2023-01-02T10:20:58.689Z,99333.75
2023-01-02T10:23:30.599Z,99342.41
2023-01-02T10:26:07.574Z,99341.34
2023-01-02T10:29:02.264Z,99323.19
2023-01-02T10:31:40.966Z,99317.50
2023-01-02T10:34:15.724Z,99344.13
2023-01-02T10:36:45.168Z,99326.19
2023-01-02T10:39:22.208Z,99325.72
2023-01-02T10:41:53.566Z,99295.94
2023-01-02T10:44:26.918Z,99321.97
2023-01-02T10:46:55.639Z,99295.19
2023-01-02T10:49:24.247Z,99301.22
2023-01-02T10:52:03.312Z,99291.59
2023-01-02T10:54:30.457Z,99313.03
2023-01-02T10:56:57.909Z,99302.88
2023-01-02T10:59:27.851Z,99312.69
2023-01-02T11:01:57.296Z,99283.81
2023-01-02T11:04:27.114Z,99289.22
2023-01-02T11:07:02.581Z,99283.28
2023-01-02T11:09:31.659Z,99288.53
2023-01-02T11:12:08.806Z,99303.28
2023-01-02T11:14:37.321Z,99336.59
2023-01-02T11:17:08.493Z,99261.91
2023-01-02T11:19:44.440Z,99271.63
2023-01-02T11:22:13.863Z,99265.66
2023-01-02T11:24:49.639Z,99259.44
2023-01-02T11:27:17.975Z,99256.53
2023-01-02T11:29:48.942Z,99287.28
2023-01-02T11:32:36.042Z,99258.59
2023-01-02T11:35:03.772Z,99266.09
2023-01-02T11:37:31.428Z,99258.69
2023-01-02T11:40:05.184Z,99265.59
2023-01-02T11:43:11.063Z,99266.69
2023-01-02T11:45:39.382Z,99268.50
2023-01-02T11:48:12.948Z,99286.63
2023-01-02T11:50:42.927Z,99253.44
2023-01-02T11:53:12.788Z,99253.81
2023-01-02T11:55:44.359Z,99259.41
2023-01-02T11:58:27.066Z,99251.94
2023-01-02T12:01:38.296Z,99249.06
2023-01-02T12:04:05.600Z,99242.28
2023-01-02T12:07:00.579Z,99234.09
2023-01-02T12:09:44.792Z,99237.13
2023-01-02T12:12:17.786Z,99261.97
2023-01-02T12:14:59.971Z,99226.22
2023-01-02T12:18:08.432Z,99217.69
2023-01-02T12:21:21.575Z,99233.03
2023-01-02T12:24:00.777Z,99209.75
2023-01-02T12:26:57.532Z,99214.63
2023-01-02T12:29:46.967Z,99221.22
2023-01-02T12:32:24.382Z,99235.78
2023-01-02T12:35:00.345Z,99199.16
2023-01-02T12:37:42.686Z,99214.28
2023-01-02T12:40:39.679Z,99229.47
2023-01-02T12:43:28.451Z,99238.56
2023-01-02T12:46:02.693Z,99213.66
2023-01-02T12:48:54.068Z,99203.72
2023-01-02T12:51:36.221Z,99209.63
2023-01-02T12:54:25.036Z,99220.28
2023-01-02T12:56:55.192Z,99205.81
2023-01-02T12:59:28.126Z,99210.56
2023-01-02T13:02:22.883Z,99209.38
2023-01-02T13:04:55.840Z,99175.84
2023-01-02T13:07:37.401Z,99189.03
2023-01-02T13:10:06.636Z,99199.06
2023-01-02T13:12:35.936Z,99186.69
2023-01-02T13:15:09.637Z,99178.75
2023-01-02T13:17:51.407Z,99182.84
2023-01-02T13:20:28.172Z,99196.16
2023-01-02T13:23:23.278Z,99178.81
2023-01-02T13:25:55.502Z,99167.16
2023-01-02T13:28:24.717Z,99171.94
2023-01-02T13:31:05.214Z,99177.75
2023-01-02T13:33:46.755Z,99186.06
2023-01-02T13:36:19.434Z,99160.81
2023-01-02T13:38:51.562Z,99174.50
2023-01-02T13:41:19.729Z,99182.28
2023-01-02T13:43:52.582Z,99169.38
2023-01-02T13:47:03.361Z,99174.63
2023-01-02T13:49:26.901Z,99151.00
2023-01-02T13:51:59.876Z,99174.72
2023-01-02T13:54:37.839Z,99153.81
2023-01-02T13:57:32.111Z,99160.63
2023-01-02T14:00:25.456Z,99151.91
2023-01-02T14:03:16.931Z,99142.00
2023-01-02T14:06:26.804Z,99140.88
2023-01-02T14:09:21.029Z,99140.09
2023-01-02T14:11:58.880Z,99130.13
2023-01-02T14:14:42.555Z,99152.84
2023-01-02T14:17:28.544Z,99179.09
2023-01-02T14:20:17.121Z,99135.03
2023-01-02T14:22:49.591Z,99146.09
2023-01-02T14:25:17.044Z,99133.94
2023-01-02T14:28:13.166Z,99137.13
2023-01-02T14:30:42.171Z,99131.16
2023-01-02T14:33:10.786Z,99144.78
2023-01-02T14:35:40.350Z,99133.41
2023-01-02T14:38:19.047Z,99130.03
2023-01-02T14:40:47.227Z,99153.31
2023-01-02T14:43:31.593Z,99150.56
2023-01-02T14:46:04.470Z,99114.81
2023-01-02T14:49:25.395Z,99116.97
2023-01-02T14:52:02.539Z,99104.81
2023-01-02T14:54:39.280Z,99120.66
2023-01-02T14:57:28.680Z,99110.91
2023-01-02T14:59:57.103Z,99119.94
2023-01-02T15:02:34.492Z,99115.94
2023-01-02T15:05:11.776Z,99121.25
2023-01-02T15:07:46.651Z,99108.00
2023-01-02T15:10:16.351Z,99121.31
2023-01-02T15:13:07.279Z,99117.06
2023-01-02T15:15:42.049Z,99132.09
2023-01-02T15:18:31.092Z,99124.31
2023-01-02T15:21:08.543Z,99134.56
2023-01-02T15:23:37.504Z,99126.69
2023-01-02T15:26:34.750Z,99126.94
2023-01-02T15:29:05.401Z,99142.25
2023-01-02T15:31:32.892Z,99134.63
2023-01-02T15:34:00.921Z,99141.91
2023-01-02T15:36:40.407Z,99141.13
2023-01-02T15:39:21.065Z,99143.31
2023-01-02T15:41:55.422Z,99152.09
2023-01-02T15:44:44.136Z,99137.94
2023-01-02T15:47:12.946Z,99126.75
2023-01-02T15:49:43.841Z,99134.16
2023-01-02T15:52:25.203Z,99141.34
2023-01-02T15:54:53.417Z,99133.47
2023-01-02T15:57:27.927Z,99133.53
2023-01-02T15:59:55.750Z,99138.81
2023-01-02T16:02:44.362Z,99145.22
2023-01-02T16:05:18.207Z,99153.88
2023-01-02T16:07:51.057Z,99155.06
2023-01-02T16:10:24.065Z,99153.41
2023-01-02T16:12:57.988Z,99160.81
2023-01-02T16:15:29.248Z,99161.03
2023-01-02T16:17:57.215Z,99158.41
2023-01-02T16:20:26.397Z,99172.41
2023-01-02T16:23:02.033Z,99170.00
2023-01-02T16:25:37.424Z,99173.59
2023-01-02T16:28:34.811Z,99182.69
2023-01-02T16:31:14.134Z,99185.56
2023-01-02T16:33:42.888Z,99182.25
2023-01-02T16:36:22.055Z,99175.28
2023-01-02T16:38:54.947Z,99164.31
2023-01-02T16:41:44.986Z,99160.09
2023-01-02T16:44:17.930Z,99162.06
2023-01-02T16:46:47.388Z,99171.84
2023-01-02T16:49:18.187Z,99153.47
2023-01-02T16:51:47.121Z,99151.00
2023-01-02T16:54:15.785Z,99153.63
2023-01-02T16:56:42.970Z,99146.53
2023-01-02T16:59:10.326Z,99146.47
2023-01-02T17:01:37.567Z,99140.34
2023-01-02T17:04:04.998Z,99143.91
2023-01-02T17:06:31.897Z,99133.47
2023-01-02T17:08:59.104Z,99122.13
2023-01-02T17:11:26.085Z,99142.34
2023-01-02T17:13:53.301Z,99136.13
2023-01-02T17:16:20.488Z,99145.69
2023-01-02T17:18:47.737Z,99164.94
2023-01-02T17:21:14.602Z,99156.03
2023-01-02T17:23:41.835Z,99157.28
2023-01-02T17:26:08.789Z,99170.66
2023-01-02T17:28:36.807Z,99169.34
2023-01-02T17:31:04.016Z,99177.41
2023-01-02T17:33:30.793Z,99173.34
2023-01-02T17:35:58.297Z,99172.56
2023-01-02T17:38:25.311Z,99190.16
2023-01-02T17:41:00.123Z,99188.22
2023-01-02T17:43:26.980Z,99190.00
2023-01-02T17:45:54.220Z,99177.78
2023-01-02T17:48:24.586Z,99167.44
2023-01-02T17:50:53.514Z,99165.09
2023-01-02T17:53:20.711Z,99157.72
2023-01-02T17:56:21.773Z,99177.06
2023-01-02T17:58:43.106Z,99179.59
2023-01-02T18:01:18.527Z,99178.63
2023-01-02T18:03:45.880Z,99171.66
2023-01-02T18:06:13.143Z,99165.56
2023-01-02T18:08:40.206Z,99174.59
2023-01-02T18:11:09.577Z,99168.22
2023-01-02T18:13:45.628Z,99160.59
2023-01-02T18:16:20.105Z,99174.03
2023-01-02T18:18:48.010Z,99180.44
2023-01-02T18:21:20.534Z,99177.44
2023-01-02T18:23:50.231Z,99165.25
2023-01-02T18:26:18.936Z,99176.03
2023-01-02T18:28:51.055Z,99153.16
2023-01-02T18:31:20.741Z,99160.31
2023-01-02T18:33:48.135Z,99153.66
2023-01-02T18:36:22.524Z,99158.25
2023-01-02T18:38:55.092Z,99156.69
2023-01-02T18:41:25.466Z,99155.97
2023-01-02T18:44:16.818Z,99155.56
2023-01-02T18:47:03.672Z,99147.41
2023-01-02T18:49:45.666Z,99153.75
2023-01-02T18:52:12.887Z,99153.13
2023-01-02T18:54:43.465Z,99162.13
2023-01-02T18:57:22.934Z,99145.47
2023-01-02T18:59:51.753Z,99145.47
2023-01-02T19:02:37.127Z,99149.97
2023-01-02T19:05:28.132Z,99132.41
2023-01-02T19:08:06.056Z,99135.13
2023-01-02T19:10:48.828Z,99123.78
2023-01-02T19:13:22.970Z,99131.97
2023-01-02T19:15:59.260Z,99133.19
2023-01-02T19:18:28.156Z,99128.13
2023-01-02T19:21:08.406Z,99124.63
2023-01-02T19:24:04.647Z,99141.69
2023-01-02T19:26:41.018Z,99136.53
2023-01-02T19:29:11.394Z,99141.81
2023-01-02T19:32:06.087Z,99132.25
2023-01-02T19:34:50.587Z,99130.75
2023-01-02T19:37:32.007Z,99121.28
2023-01-02T19:40:06.444Z,99134.47
2023-01-02T19:42:35.513Z,99122.28
2023-01-02T19:45:07.213Z,99127.81
2023-01-02T19:47:36.678Z,99133.25
2023-01-02T19:50:08.018Z,99131.53
2023-01-02T19:52:35.061Z,99130.66
2023-01-02T19:55:04.054Z,99133.31
2023-01-02T19:57:30.921Z,99127.03
2023-01-02T19:59:59.199Z,99134.03
2023-01-02T20:02:28.166Z,99130.47
2023-01-02T20:04:55.811Z,99131.53
2023-01-02T20:07:24.202Z,99129.97
2023-01-02T20:09:52.265Z,99130.16
2023-01-02T20:12:41.201Z,99129.38
2023-01-02T20:15:14.914Z,99129.88
2023-01-02T20:17:42.302Z,99133.66
2023-01-02T20:20:15.724Z,99140.69
2023-01-02T20:22:43.699Z,99136.56
2023-01-02T20:25:12.951Z,99134.72
2023-01-02T20:27:40.250Z,99125.75
2023-01-02T20:30:08.872Z,99126.66
2023-01-02T20:32:35.967Z,99127.59
2023-01-02T20:35:03.446Z,99115.09
2023-01-02T20:37:31.161Z,99121.28
2023-01-02T20:39:58.649Z,99126.47
2023-01-02T20:42:25.704Z,99115.84
2023-01-02T20:44:52.921Z,99122.19
2023-01-02T20:47:19.920Z,99125.75
2023-01-02T20:49:47.177Z,99129.28
2023-01-02T20:52:14.229Z,99127.59
2023-01-02T20:54:41.609Z,99130.53
2023-01-02T20:57:08.605Z,99139.25
2023-01-02T20:59:35.747Z,99128.09
2023-01-02T21:02:02.849Z,99130.88
2023-01-02T21:04:36.209Z,99138.00
2023-01-02T21:07:05.420Z,99143.22
2023-01-02T21:09:33.120Z,99151.22
2023-01-02T21:12:00.058Z,99143.47
2023-01-02T21:14:30.053Z,99149.72
2023-01-02T21:17:00.759Z,99142.53
2023-01-02T21:19:27.933Z,99137.94
2023-01-02T21:21:54.799Z,99137.84
2023-01-02T21:24:21.980Z,99141.38
2023-01-02T21:26:48.848Z,99148.41
2023-01-02T21:29:16.041Z,99140.50
2023-01-02T21:31:42.913Z,99147.75
2023-01-02T21:34:11.710Z,99152.03
2023-01-02T21:36:38.649Z,99148.88
2023-01-02T21:39:05.844Z,99144.56
2023-01-02T21:41:51.195Z,99143.84
2023-01-02T21:44:18.427Z,99144.94
2023-01-02T21:46:45.321Z,99144.16
2023-01-02T21:49:12.709Z,99145.03
2023-01-02T21:51:39.598Z,99136.25
2023-01-02T21:54:06.851Z,99142.25
2023-01-02T21:56:33.760Z,99137.97
2023-01-02T21:59:00.990Z,99139.81
2023-01-02T22:01:27.972Z,99131.25
2023-01-02T22:03:57.345Z,99138.22
2023-01-02T22:06:24.439Z,99144.47
2023-01-02T22:08:51.580Z,99138.34
2023-01-02T22:11:37.303Z,99147.25
2023-01-02T22:14:04.460Z,99149.94
2023-01-02T22:16:31.544Z,99149.28
2023-01-02T22:18:58.735Z,99139.78
2023-01-02T22:21:25.606Z,99155.44
2023-01-02T22:23:52.859Z,99155.44
2023-01-02T22:26:19.852Z,99155.53
2023-01-02T22:28:47.095Z,99159.06
2023-01-02T22:31:14.158Z,99159.13
2023-01-02T22:33:41.963Z,99153.13
2023-01-02T22:36:09.439Z,99137.31
2023-01-02T22:38:43.870Z,99150.53
2023-01-02T22:41:22.141Z,99154.91
2023-01-02T22:43:49.461Z,99150.69
2023-01-02T22:46:39.858Z,99148.84
2023-01-02T22:49:09.727Z,99153.13
2023-01-02T22:52:06.073Z,99162.81
2023-01-02T22:54:24.552Z,99160.94
2023-01-02T22:56:51.553Z,99148.72
2023-01-02T22:59:19.081Z,99152.38
2023-01-02T23:01:47.459Z,99151.66
2023-01-02T23:04:23.591Z,99155.25
2023-01-02T23:07:22.844Z,99149.75
2023-01-02T23:09:39.314Z,99151.41
2023-01-02T23:12:06.469Z,99161.88
2023-01-02T23:14:33.727Z,99164.75
2023-01-02T23:17:19.243Z,99161.94
2023-01-02T23:19:46.473Z,99160.34
2023-01-02T23:22:13.574Z,99172.59
2023-01-02T23:24:40.804Z,99166.31
2023-01-02T23:27:10.117Z,99168.09
2023-01-02T23:29:38.083Z,99172.28
2023-01-02T23:32:05.881Z,99182.84
2023-01-02T23:34:33.140Z,99183.91
2023-01-02T23:37:00.785Z,99185.97
2023-01-02T23:39:30.089Z,99196.63
2023-01-02T23:41:57.724Z,99193.44
2023-01-02T23:44:26.071Z,99198.78
2023-01-02T23:46:54.324Z,99197.72
2023-01-02T23:49:23.637Z,99193.28
2023-01-02T23:51:51.786Z,99196.00
2023-01-02T23:54:19.855Z,99195.25
2023-01-02T23:56:48.653Z,99203.34
2023-01-02T23:59:19.289Z,99197.31
